Tuscarora, MD (21790)

12:33 AM EST on January 28, 2015 (GMT -0500)
APRSWXNET Lucketts VA US | Change Station
CLOSE
Current Station
Personal Weather Station
Location: Tuscarora, MD
Elevation: 314 ft
Nearby Weather Stations
Active Advisory: Special Statement

Elev 314 ft 39.24 °N, 77.51 °W | Updated 29 minutes ago

Partly Cloudy
Partly Cloudy
25 °F
Feels Like 19 °F
N
5
Wind Variable Wind from West
Gusts 12.0 mph

Today
High -- | Low -- °F
--% Chance of Precip.
Yesterday
High -- | Low -- °F
Precip. -- in
7:20 AM 5:25 PM
First Quarter, 61% visible
Pressure 30.04 in
Visibility 10.0 miles
Clouds Clear
Windchill 19 °F
Dew Point 17 °F
Humidity 71%
Rainfall 0.00 in
Snow Depth Not available.
UV 0 out of 12
Pollen .10 out of 12
Air Quality Not available.
Flu Activity Not available.
METAR KFDK 280520Z AUTO 31008KT 10SM CLR M02/M12 A3004 RMK AO2

More Conditions Fewer Conditions

Pressure 30.04 in
Visibility 10.0 miles
Clouds Clear
Windchill 19 °F
Dew Point 17 °F
Humidity 71%
Rainfall 0.00 in
Snow Depth Not available.
UV 0 out of 12
Pollen .10 out of 12
Air Quality Not available.
Flu Activity Not available.
METAR KFDK 280520Z AUTO 31008KT 10SM CLR M02/M12 A3004 RMK AO2

More Conditions Fewer Conditions

10-Day Weather Forecast

Almanac

Astronomy

Jan. 28, 2015 Rise Set
Actual Time
Civil Twilight
Nautical Twilight
Astronomical Twilight
Moon
Length of Visible Light
Length of Day
Tomorrow will be .
, % of the Moon is Illuminated

Today's Extremes

State Highs State Lows

Community

WunderPhotos

Upload Photos

1,791,103 photos uploaded!

WunderBlogs® & News

Nearby

Air Quality

  Air Quality AQ Index Pollutant
Not available.

Snow Depth

Station Depth Elevation

Earthquake Activity

City Distance Mag. Time & Date
Minimum magnitude displayed is 2.5.

Coastal Water Temperatures

Place Temperature

Nearby Weather Stations